METAR Data
IDs: Format: Raw Decoded Include TAF

Data at: 2151 UTC 01 Dec 2021

KHNR 012135Z AUTO 21010G15KT 10SM CLR 16/02 A2981 RMK A01